createdAt,value
2017-08-18T00:01:37.670Z,17.17
2017-08-18T00:04:03.693Z,18.40
2017-08-18T00:06:29.646Z,15.17
2017-08-18T00:08:55.589Z,17.87
2017-08-18T00:11:21.619Z,17.40
2017-08-18T00:13:47.568Z,17.83
2017-08-18T00:16:13.510Z,16.83
2017-08-18T00:18:40.228Z,17.00
2017-08-18T00:21:06.915Z,17.30
2017-08-18T00:23:32.858Z,15.20
2017-08-18T00:25:59.576Z,18.83
2017-08-18T00:28:25.552Z,17.50
2017-08-18T00:30:51.547Z,16.33
2017-08-18T00:33:17.520Z,14.73
2017-08-18T00:35:44.204Z,15.10
2017-08-18T00:38:10.175Z,15.77
2017-08-18T00:40:36.148Z,14.43
2017-08-18T00:43:02.132Z,14.37
2017-08-18T00:45:28.112Z,18.60
2017-08-18T00:47:54.073Z,15.47
2017-08-18T00:50:20.789Z,14.63
2017-08-18T00:52:46.818Z,14.97
2017-08-18T00:55:13.514Z,17.03
2017-08-18T00:57:39.448Z,14.17
2017-08-18T01:00:06.201Z,15.30
2017-08-18T01:02:32.227Z,15.23
2017-08-18T01:04:58.164Z,16.17
2017-08-18T01:07:24.164Z,13.83
2017-08-18T01:09:50.153Z,16.07
2017-08-18T01:12:16.144Z,14.00
2017-08-18T01:14:42.080Z,14.53
2017-08-18T01:17:08.032Z,15.27
2017-08-18T01:19:34.753Z,15.30
2017-08-18T01:22:01.477Z,14.17
2017-08-18T01:24:28.181Z,14.33
2017-08-18T01:26:54.188Z,14.30
2017-08-18T01:29:20.177Z,15.17
2017-08-18T01:31:46.205Z,13.10
2017-08-18T01:34:12.225Z,14.03
2017-08-18T01:36:38.156Z,13.43
2017-08-18T01:39:04.833Z,12.03
2017-08-18T01:41:30.833Z,12.20
2017-08-18T01:43:56.774Z,12.40
2017-08-18T01:46:22.732Z,13.37
2017-08-18T01:48:48.697Z,12.83
2017-08-18T01:51:14.642Z,13.00
2017-08-18T01:53:40.581Z,13.53
2017-08-18T01:56:06.585Z,12.40
2017-08-18T01:58:32.524Z,12.83
2017-08-18T02:00:58.501Z,12.60
2017-08-18T02:03:24.465Z,14.33
2017-08-18T02:05:50.481Z,13.63
2017-08-18T02:08:16.449Z,15.13
2017-08-18T02:10:42.393Z,13.47
2017-08-18T02:13:09.109Z,13.00
2017-08-18T02:15:35.821Z,12.20
2017-08-18T02:18:01.917Z,12.93
2017-08-18T02:20:27.897Z,13.60
2017-08-18T02:22:53.846Z,13.40
2017-08-18T02:25:19.825Z,14.30
2017-08-18T02:27:45.768Z,11.87
2017-08-18T02:30:11.813Z,14.93
2017-08-18T02:32:37.749Z,12.07
2017-08-18T02:35:03.693Z,13.50
2017-08-18T02:37:29.673Z,13.00
2017-08-18T02:39:55.646Z,14.10
2017-08-18T02:42:21.641Z,12.30
2017-08-18T02:44:47.641Z,12.83
2017-08-18T02:47:14.317Z,13.60
2017-08-18T02:49:40.253Z,13.93
2017-08-18T02:52:06.229Z,12.90
2017-08-18T02:54:32.200Z,12.43
2017-08-18T02:56:58.213Z,12.87
2017-08-18T02:59:24.216Z,13.10
2017-08-18T03:01:50.228Z,12.30
2017-08-18T03:04:16.209Z,12.40
2017-08-18T03:06:42.149Z,12.67
2017-08-18T03:09:08.089Z,12.77
2017-08-18T03:11:34.057Z,12.17
2017-08-18T03:14:00.005Z,12.83
2017-08-18T03:16:25.986Z,12.93
2017-08-18T03:18:51.969Z,12.23
2017-08-18T03:21:18.706Z,12.87
2017-08-18T03:23:44.653Z,12.10
2017-08-18T03:26:10.624Z,13.80
2017-08-18T03:28:36.608Z,13.10
2017-08-18T03:31:02.549Z,12.17
2017-08-18T03:33:28.496Z,12.63
2017-08-18T03:35:54.465Z,12.47
2017-08-18T03:38:20.434Z,13.00
2017-08-18T03:40:46.409Z,12.40
2017-08-18T03:43:12.345Z,13.90
2017-08-18T03:45:38.317Z,12.73
2017-08-18T03:48:04.297Z,11.87
2017-08-18T03:50:30.976Z,12.83
2017-08-18T03:52:56.919Z,12.53
2017-08-18T03:55:22.905Z,13.17
2017-08-18T03:57:49.602Z,12.53
2017-08-18T04:00:15.578Z,12.70
2017-08-18T04:02:41.525Z,14.20
2017-08-18T04:05:07.540Z,14.27
2017-08-18T04:07:33.516Z,11.53
2017-08-18T04:09:59.457Z,13.40
2017-08-18T04:12:25.444Z,13.47
2017-08-18T04:14:51.401Z,12.23
2017-08-18T04:17:17.381Z,13.63
2017-08-18T04:19:43.341Z,13.60
2017-08-18T04:22:09.284Z,13.13
2017-08-18T04:24:35.276Z,13.43
2017-08-18T04:27:01.213Z,14.80
2017-08-18T04:29:27.157Z,14.87
2017-08-18T04:31:53.187Z,14.50
2017-08-18T04:34:19.149Z,15.57
2017-08-18T04:36:45.129Z,16.73
2017-08-18T04:39:11.091Z,16.27
2017-08-18T04:41:37.806Z,17.73
2017-08-18T04:44:03.781Z,17.80
2017-08-18T04:46:29.752Z,16.67
2017-08-18T04:48:55.702Z,17.00
2017-08-18T04:51:21.691Z,19.00
2017-08-18T04:53:47.638Z,18.63
2017-08-18T04:56:13.609Z,19.63
2017-08-18T04:58:39.585Z,18.43
2017-08-18T05:01:05.552Z,17.03
2017-08-18T05:03:31.509Z,15.43
2017-08-18T05:05:57.521Z,17.27
2017-08-18T05:08:23.509Z,17.60
2017-08-18T05:10:50.197Z,19.80
2017-08-18T05:13:16.164Z,17.63
2017-08-18T05:15:42.133Z,19.30
2017-08-18T05:18:08.069Z,19.10
2017-08-18T05:20:34.104Z,17.23
2017-08-18T05:23:00.040Z,18.97
2017-08-18T05:25:26.018Z,17.20
2017-08-18T05:27:51.982Z,18.97
2017-08-18T05:30:18.733Z,17.67
2017-08-18T05:32:44.688Z,17.30
2017-08-18T05:35:10.637Z,20.17
2017-08-18T05:37:36.608Z,17.23
2017-08-18T05:40:02.565Z,19.30
2017-08-18T05:42:28.553Z,18.13
2017-08-18T05:44:55.285Z,17.60
2017-08-18T05:47:21.233Z,19.07
2017-08-18T05:49:47.232Z,17.83
2017-08-18T05:52:13.185Z,16.33
2017-08-18T05:54:39.178Z,16.07
2017-08-18T05:57:05.145Z,15.60
2017-08-18T05:59:31.141Z,15.40
2017-08-18T06:01:57.221Z,16.73
2017-08-18T06:04:23.165Z,14.90
2017-08-18T06:06:49.878Z,15.63
2017-08-18T06:09:16.653Z,15.50
2017-08-18T06:11:43.409Z,13.93
2017-08-18T06:14:09.401Z,13.57
2017-08-18T06:16:35.337Z,13.97
2017-08-18T06:19:01.309Z,12.73
2017-08-18T06:21:27.285Z,13.50
2017-08-18T06:23:53.242Z,12.80
2017-08-18T06:26:19.196Z,14.00
2017-08-18T06:28:45.522Z,14.00
2017-08-18T06:31:11.498Z,12.50
2017-08-18T06:33:37.445Z,14.00
2017-08-18T06:36:03.433Z,13.50
2017-08-18T06:38:29.384Z,12.27
2017-08-18T06:40:55.320Z,11.47
2017-08-18T06:43:21.328Z,11.73
2017-08-18T06:45:47.298Z,10.40
2017-08-18T06:48:13.261Z,11.90
2017-08-18T06:50:39.974Z,11.20
2017-08-18T06:53:05.961Z,11.57
2017-08-18T06:55:31.901Z,11.70
2017-08-18T06:57:58.629Z,11.23
2017-08-18T07:00:25.352Z,11.87
2017-08-18T07:02:51.321Z,10.40
2017-08-18T07:05:17.272Z,12.30
2017-08-18T07:07:43.265Z,10.30
2017-08-18T07:10:09.986Z,11.13
2017-08-18T07:12:36.689Z,9.97
2017-08-18T07:15:02.620Z,11.33
2017-08-18T07:17:29.364Z,10.63
2017-08-18T07:19:55.296Z,9.70
2017-08-18T07:22:21.237Z,8.93
2017-08-18T07:24:47.269Z,7.97
2017-08-18T07:27:13.957Z,10.10
2017-08-18T07:29:39.901Z,9.70
2017-08-18T07:32:06.689Z,9.20
2017-08-18T07:34:32.634Z,7.50
2017-08-18T07:36:59.333Z,8.37
2017-08-18T07:39:25.348Z,8.03
2017-08-18T07:41:51.341Z,7.67
2017-08-18T07:44:17.297Z,7.77
2017-08-18T07:46:43.246Z,7.53
2017-08-18T07:49:09.269Z,6.40
2017-08-18T07:51:35.240Z,6.40
2017-08-18T07:54:01.184Z,6.93
2017-08-18T07:56:27.160Z,7.20
2017-08-18T07:58:53.119Z,5.83
2017-08-18T08:01:19.121Z,6.40
2017-08-18T08:03:45.097Z,5.20
2017-08-18T08:06:11.037Z,8.90
2017-08-18T08:08:37.017Z,5.23
2017-08-18T08:11:02.965Z,5.17
2017-08-18T08:13:28.956Z,4.93
2017-08-18T08:15:54.897Z,5.13
2017-08-18T08:18:20.853Z,4.20
2017-08-18T08:20:46.850Z,5.23
2017-08-18T08:23:12.793Z,5.03
2017-08-18T08:25:38.773Z,5.30
2017-08-18T08:28:04.709Z,5.17
2017-08-18T08:30:30.650Z,4.50
2017-08-18T08:32:56.616Z,5.67
2017-08-18T08:35:22.568Z,5.03
2017-08-18T08:37:48.544Z,5.13
2017-08-18T08:40:14.485Z,6.73
2017-08-18T08:42:40.461Z,4.90
2017-08-18T08:45:06.444Z,4.83
2017-08-18T08:47:32.384Z,4.97
2017-08-18T08:49:58.320Z,5.17
2017-08-18T08:52:25.069Z,5.60
2017-08-18T08:54:51.029Z,4.80
2017-08-18T08:57:17.022Z,5.23
2017-08-18T08:59:43.041Z,4.17
2017-08-18T09:02:08.997Z,4.50
2017-08-18T09:04:35.709Z,4.43
2017-08-18T09:07:01.713Z,4.10
2017-08-18T09:09:27.641Z,4.47
2017-08-18T09:11:54.393Z,4.10
2017-08-18T09:14:20.345Z,4.63
2017-08-18T09:16:46.317Z,3.70
2017-08-18T09:19:12.292Z,4.13
2017-08-18T09:21:39.028Z,4.40
2017-08-18T09:24:04.968Z,3.50
2017-08-18T09:26:30.940Z,3.97
2017-08-18T09:28:57.697Z,3.20
2017-08-18T09:31:23.681Z,3.47
2017-08-18T09:33:49.642Z,4.00
2017-08-18T09:36:15.589Z,4.50
2017-08-18T09:38:42.326Z,3.77
2017-08-18T09:41:08.270Z,4.73
2017-08-18T09:43:34.245Z,3.70
2017-08-18T09:46:00.184Z,3.20
2017-08-18T09:48:38.549Z,3.53
2017-08-18T09:51:16.957Z,3.90
2017-08-18T09:56:56.316Z,3.30
2017-08-18T09:59:22.321Z,3.87
2017-08-18T10:01:48.261Z,3.70
2017-08-18T10:04:14.216Z,3.73
2017-08-18T10:06:40.224Z,3.93
2017-08-18T10:09:06.161Z,4.77
2017-08-18T10:11:32.149Z,3.50
2017-08-18T10:13:58.105Z,3.37
2017-08-18T10:16:24.104Z,3.90
2017-08-18T10:18:50.045Z,5.03
2017-08-18T10:21:15.981Z,3.80
2017-08-18T10:23:41.949Z,3.60
2017-08-18T10:26:07.889Z,3.60
2017-08-18T10:28:33.865Z,3.13
2017-08-18T10:30:59.849Z,2.70
2017-08-18T10:33:26.565Z,3.07
2017-08-18T10:35:53.291Z,3.07
2017-08-18T10:38:19.993Z,6.40
2017-08-18T10:40:45.929Z,3.30
2017-08-18T10:43:12.637Z,3.00
2017-08-18T10:45:38.588Z,2.57
2017-08-18T10:48:04.581Z,3.67
2017-08-18T10:50:30.562Z,3.50
2017-08-18T10:52:56.525Z,3.80
2017-08-18T10:55:22.501Z,4.10
2017-08-18T10:57:49.217Z,3.37
2017-08-18T11:00:15.205Z,3.70
2017-08-18T11:02:41.149Z,3.63
2017-08-18T11:05:07.088Z,5.03
2017-08-18T11:07:33.104Z,4.03
2017-08-18T11:09:59.049Z,4.27
2017-08-18T11:12:25.076Z,3.93
2017-08-18T11:14:51.017Z,4.63
2017-08-18T11:17:16.957Z,4.00
2017-08-18T11:19:42.925Z,4.07
2017-08-18T11:22:08.882Z,3.97
2017-08-18T11:24:34.849Z,3.50
2017-08-18T11:27:00.793Z,4.23
2017-08-18T11:29:26.778Z,4.00
2017-08-18T11:31:52.721Z,3.40
2017-08-18T11:34:18.691Z,3.23
2017-08-18T11:36:44.640Z,3.80
2017-08-18T11:39:10.612Z,3.70
2017-08-18T11:41:37.397Z,5.10
2017-08-18T11:44:03.333Z,4.63
2017-08-18T11:46:29.311Z,5.63
2017-08-18T11:48:55.293Z,5.60
2017-08-18T11:51:21.229Z,5.40
2017-08-18T11:53:47.197Z,6.70
2017-08-18T11:56:13.197Z,6.27
2017-08-18T11:58:39.931Z,6.77
2017-08-18T12:01:05.885Z,5.87
2017-08-18T12:03:31.856Z,6.93
2017-08-18T12:05:57.831Z,6.47
2017-08-18T12:08:23.777Z,7.50
2017-08-18T12:10:49.744Z,6.13
2017-08-18T12:13:15.727Z,6.07
2017-08-18T12:15:41.697Z,7.33
2017-08-18T12:18:07.680Z,6.60
2017-08-18T12:20:33.625Z,6.40
2017-08-18T12:22:59.597Z,7.00
2017-08-18T12:25:25.586Z,7.33
2017-08-18T12:27:51.529Z,7.57
2017-08-18T12:30:17.464Z,7.90
2017-08-18T12:32:43.458Z,7.43
2017-08-18T12:35:09.465Z,6.90
2017-08-18T12:37:35.427Z,7.50
2017-08-18T12:40:01.370Z,6.67
2017-08-18T12:42:27.339Z,16.43
2017-08-18T12:44:53.277Z,7.43
2017-08-18T12:47:19.224Z,7.47
2017-08-18T12:49:45.928Z,7.33
2017-08-18T12:52:11.880Z,7.53
2017-08-18T12:54:37.877Z,7.67
2017-08-18T12:57:03.813Z,6.93
2017-08-18T12:59:29.757Z,7.90
2017-08-18T13:01:56.534Z,7.67
2017-08-18T13:04:22.509Z,7.10
2017-08-18T13:06:49.189Z,7.73
2017-08-18T13:09:15.164Z,7.27
2017-08-18T13:11:41.111Z,7.80
2017-08-18T13:14:07.094Z,7.83
2017-08-18T13:16:33.069Z,6.60
2017-08-18T13:18:59.057Z,6.50
2017-08-18T13:21:24.992Z,7.23
2017-08-18T13:23:50.929Z,7.33
2017-08-18T13:26:16.920Z,8.20
2017-08-18T13:28:42.925Z,7.67
2017-08-18T13:31:08.889Z,8.80
2017-08-18T13:33:34.880Z,9.43
2017-08-18T13:36:00.820Z,9.90
2017-08-18T13:38:27.506Z,10.53
2017-08-18T13:40:53.488Z,10.20
2017-08-18T13:43:19.440Z,10.67
2017-08-18T13:45:45.377Z,9.93
2017-08-18T13:48:11.349Z,9.77
2017-08-18T13:50:37.366Z,9.27
2017-08-18T13:53:03.305Z,11.27
2017-08-18T13:55:30.029Z,9.93
2017-08-18T13:57:55.981Z,10.37
2017-08-18T14:00:21.916Z,9.60
2017-08-18T14:02:47.929Z,10.93
2017-08-18T14:05:13.913Z,10.20
2017-08-18T14:07:39.880Z,10.63
2017-08-18T14:10:06.766Z,10.20
2017-08-18T14:12:32.798Z,10.30
2017-08-18T14:14:58.748Z,9.87
2017-08-18T14:17:24.685Z,10.57
2017-08-18T14:19:50.661Z,11.23
2017-08-18T14:22:16.612Z,9.40
2017-08-18T14:24:42.605Z,9.17
2017-08-18T14:30:04.053Z,9.33
2017-08-18T14:32:30.054Z,9.67
2017-08-18T14:34:56.029Z,10.23
2017-08-18T14:37:22.121Z,9.40
2017-08-18T14:39:48.816Z,9.60
2017-08-18T14:42:14.749Z,10.10
2017-08-18T14:44:41.489Z,9.13
2017-08-18T14:47:08.321Z,8.63
2017-08-18T14:49:34.265Z,8.50
2017-08-18T14:52:00.210Z,9.07
2017-08-18T14:54:26.193Z,7.17
2017-08-18T14:56:52.133Z,5.93
2017-08-18T14:59:18.077Z,6.33
2017-08-18T15:01:44.104Z,7.00
2017-08-18T15:04:10.053Z,5.60
2017-08-18T15:06:36.018Z,6.60
2017-08-18T15:09:02.032Z,6.60
2017-08-18T15:11:28.033Z,6.97
2017-08-18T15:13:54.033Z,6.07
2017-08-18T15:16:20.041Z,6.60
2017-08-18T15:18:46.014Z,6.23
2017-08-18T15:21:12.001Z,6.07
2017-08-18T15:23:38.012Z,6.43
2017-08-18T15:26:03.985Z,6.10
2017-08-18T15:28:29.961Z,6.90
2017-08-18T15:30:55.911Z,7.10
2017-08-18T15:33:21.884Z,6.07
2017-08-18T15:35:48.566Z,5.83
2017-08-18T15:38:14.541Z,6.40
2017-08-18T15:40:40.510Z,6.03
2017-08-18T15:43:06.505Z,5.80
2017-08-18T15:45:32.504Z,6.67
2017-08-18T15:47:58.445Z,7.10
2017-08-18T15:50:24.416Z,6.20
2017-08-18T15:52:50.353Z,7.17
2017-08-18T15:55:16.352Z,6.27
2017-08-18T15:57:42.293Z,6.73
2017-08-18T16:00:08.274Z,6.83
2017-08-18T16:02:34.237Z,7.07
2017-08-18T16:05:00.978Z,5.97
2017-08-18T16:07:27.660Z,6.03
2017-08-18T16:09:53.656Z,6.80
2017-08-18T16:12:19.653Z,6.60
2017-08-18T16:14:45.601Z,6.80
2017-08-18T16:17:11.541Z,10.13
2017-08-18T16:19:37.533Z,9.93
2017-08-18T16:22:04.217Z,7.70
2017-08-18T16:24:30.176Z,7.20
2017-08-18T16:26:56.933Z,6.47
2017-08-18T16:29:22.872Z,7.03
2017-08-18T16:31:48.849Z,7.03
2017-08-18T16:34:14.851Z,7.17
2017-08-18T16:36:40.817Z,6.97
2017-08-18T16:39:06.753Z,7.53
2017-08-18T16:41:32.730Z,7.00
2017-08-18T16:43:58.709Z,7.80
2017-08-18T16:46:24.645Z,6.53
2017-08-18T16:48:50.586Z,6.33
2017-08-18T16:51:16.565Z,7.57
2017-08-18T16:53:42.514Z,6.00
2017-08-18T16:56:08.551Z,7.70
2017-08-18T16:58:34.525Z,7.50
2017-08-18T17:01:00.468Z,8.40
2017-08-18T17:03:26.445Z,8.27
2017-08-18T17:05:52.412Z,7.27
2017-08-18T17:08:18.353Z,7.73
2017-08-18T17:10:44.491Z,7.80
2017-08-18T17:13:10.517Z,6.73
2017-08-18T17:15:36.477Z,8.50
2017-08-18T17:18:02.430Z,12.80
2017-08-18T17:20:28.400Z,8.20
2017-08-18T17:22:54.971Z,7.30
2017-08-18T17:25:20.988Z,7.90
2017-08-18T17:27:46.937Z,9.57
2017-08-18T17:30:12.873Z,9.83
2017-08-18T17:32:38.873Z,10.37
2017-08-18T17:35:04.861Z,9.63
2017-08-18T17:37:30.869Z,7.23
2017-08-18T17:39:56.833Z,10.90
2017-08-18T17:42:22.996Z,8.93
2017-08-18T17:44:49.180Z,8.70
2017-08-18T17:47:15.330Z,7.77
2017-08-18T17:49:42.004Z,7.23
2017-08-18T17:52:08.180Z,7.67
2017-08-18T17:54:34.218Z,7.90
2017-08-18T17:57:00.265Z,7.97
2017-08-18T17:59:26.940Z,8.60
2017-08-18T18:01:52.909Z,6.40
2017-08-18T18:04:18.920Z,6.37
2017-08-18T18:06:44.912Z,8.67
2017-08-18T18:09:11.629Z,7.27
2017-08-18T18:11:37.590Z,7.30
2017-08-18T18:14:03.574Z,8.03
2017-08-18T18:16:29.561Z,8.43
2017-08-18T18:18:55.506Z,7.17
2017-08-18T18:21:21.442Z,7.83
2017-08-18T18:23:47.421Z,15.10
2017-08-18T18:26:13.400Z,10.00
2017-08-18T18:28:40.107Z,8.33
2017-08-18T18:31:06.105Z,8.30
2017-08-18T18:33:32.086Z,9.07
2017-08-18T18:35:58.061Z,14.77
2017-08-18T18:38:24.005Z,8.70
2017-08-18T18:40:49.953Z,7.87
2017-08-18T18:43:15.928Z,9.70
2017-08-18T18:45:41.933Z,8.10
2017-08-18T18:48:07.885Z,8.67
2017-08-18T18:50:34.634Z,9.90
2017-08-18T18:53:00.581Z,11.43
2017-08-18T18:55:26.565Z,9.07
2017-08-18T18:57:52.509Z,9.50
2017-08-18T19:00:18.485Z,11.63
2017-08-18T19:02:44.509Z,9.77
2017-08-18T19:05:10.457Z,9.50
2017-08-18T19:07:36.404Z,9.43
2017-08-18T19:10:02.401Z,10.07
2017-08-18T19:12:28.351Z,9.50
2017-08-18T19:14:54.333Z,10.00
2017-08-18T19:17:20.301Z,13.07
2017-08-18T19:19:46.980Z,10.30
2017-08-18T19:22:12.952Z,16.70
2017-08-18T19:24:38.889Z,12.60
2017-08-18T19:27:04.878Z,12.33
2017-08-18T19:29:30.848Z,11.83
2017-08-18T19:31:57.545Z,10.67
2017-08-18T19:34:23.531Z,10.47
2017-08-18T19:36:50.209Z,12.13
2017-08-18T19:39:16.184Z,8.83
2017-08-18T19:41:42.125Z,5.20
2017-08-18T19:44:08.098Z,3.90
2017-08-18T19:46:34.110Z,5.07
2017-08-18T19:49:00.055Z,3.87
2017-08-18T19:51:27.001Z,4.60
2017-08-18T19:53:53.685Z,3.70
2017-08-18T19:56:19.674Z,4.87
2017-08-18T19:58:45.632Z,5.40
2017-08-18T20:01:11.601Z,4.00
2017-08-18T20:03:37.604Z,5.50
2017-08-18T20:06:03.586Z,15.00
2017-08-18T20:08:29.525Z,13.27
2017-08-18T20:10:55.529Z,9.07
2017-08-18T20:13:21.508Z,5.90
2017-08-18T20:15:47.444Z,4.83
2017-08-18T20:18:13.457Z,5.63
2017-08-18T20:20:39.409Z,5.43
2017-08-18T20:23:05.362Z,5.97
2017-08-18T20:25:31.398Z,4.67
2017-08-18T20:27:57.655Z,4.53
2017-08-18T20:30:23.616Z,7.07
2017-08-18T20:32:49.745Z,4.23
2017-08-18T20:35:16.683Z,7.37
2017-08-18T20:37:43.096Z,6.37
2017-08-18T20:40:09.097Z,4.23
2017-08-18T20:42:36.005Z,6.60
2017-08-18T20:45:02.166Z,3.80
2017-08-18T20:47:28.183Z,4.53
2017-08-18T20:49:54.145Z,5.53
2017-08-18T20:52:20.206Z,4.00
2017-08-18T20:54:46.165Z,6.87
2017-08-18T20:57:12.134Z,3.90
2017-08-18T20:59:38.109Z,4.23
2017-08-18T21:02:04.970Z,5.50
2017-08-18T21:04:31.178Z,6.10
2017-08-18T21:06:57.386Z,4.93
2017-08-18T21:09:23.337Z,4.37
2017-08-18T21:11:49.327Z,4.50
2017-08-18T21:14:15.568Z,4.57
2017-08-18T21:16:41.679Z,4.03
2017-08-18T21:19:07.841Z,4.50
2017-08-18T21:21:34.082Z,5.30
2017-08-18T21:24:00.244Z,6.40
2017-08-18T21:26:26.218Z,5.47
2017-08-18T21:28:52.156Z,5.07
2017-08-18T21:31:18.311Z,6.60
2017-08-18T21:33:45.356Z,4.93
2017-08-18T21:36:11.650Z,4.50
2017-08-18T21:38:38.414Z,7.03
2017-08-18T21:41:04.401Z,4.50
2017-08-18T21:43:30.337Z,4.50
2017-08-18T21:45:57.021Z,4.00
2017-08-18T21:48:23.017Z,4.50
2017-08-18T21:50:49.229Z,4.17
2017-08-18T21:53:15.505Z,4.30
2017-08-18T21:55:41.448Z,4.50
2017-08-18T21:58:07.471Z,4.67
2017-08-18T22:00:33.482Z,4.80
2017-08-18T22:02:59.445Z,4.60
2017-08-18T22:05:25.553Z,4.67
2017-08-18T22:07:52.264Z,4.17
2017-08-18T22:10:18.360Z,6.53
2017-08-18T22:12:44.345Z,4.53
2017-08-18T22:15:10.422Z,5.90
2017-08-18T22:17:36.573Z,4.50
2017-08-18T22:20:02.560Z,4.17
2017-08-18T22:22:28.605Z,4.63
2017-08-18T22:24:54.548Z,5.77
2017-08-18T22:27:20.517Z,3.93
2017-08-18T22:29:46.457Z,3.77
2017-08-18T22:32:12.448Z,3.10
2017-08-18T22:34:38.384Z,4.73
2017-08-18T22:37:04.320Z,5.27
2017-08-18T22:39:30.296Z,9.57
2017-08-18T22:41:56.254Z,4.27
2017-08-18T22:44:22.197Z,4.07
2017-08-18T22:46:48.169Z,4.13
2017-08-18T22:49:14.109Z,5.53
2017-08-18T22:51:40.077Z,5.20
2017-08-18T22:54:06.061Z,3.90
2017-08-18T22:56:32.001Z,3.93
2017-08-18T22:58:57.977Z,3.87
2017-08-18T23:01:24.693Z,3.17
2017-08-18T23:03:50.624Z,3.73
2017-08-18T23:06:16.571Z,3.33
2017-08-18T23:08:42.556Z,3.37
2017-08-18T23:11:08.580Z,3.07
2017-08-18T23:13:34.512Z,4.40
2017-08-18T23:16:00.501Z,5.10
2017-08-18T23:18:26.441Z,4.03
2017-08-18T23:20:52.421Z,2.73
2017-08-18T23:23:18.397Z,4.00
2017-08-18T23:25:44.378Z,3.30
2017-08-18T23:28:11.085Z,2.70
2017-08-18T23:30:37.029Z,3.20
2017-08-18T23:33:03.017Z,2.80
2017-08-18T23:35:29.698Z,3.00
2017-08-18T23:37:55.642Z,2.90
2017-08-18T23:40:21.648Z,2.53
2017-08-18T23:42:47.628Z,3.30
2017-08-18T23:45:13.661Z,2.27
2017-08-18T23:47:39.600Z,2.93
2017-08-18T23:50:05.597Z,3.17
2017-08-18T23:52:32.286Z,2.90
2017-08-18T23:54:58.242Z,3.57
2017-08-18T23:57:24.220Z,3.30
2017-08-18T23:59:50.316Z,3.80
